sensor_id;sensor_type;location;lat;lon;timestamp;pressure;altitude;pressure_sealevel;temperature;humidity
49999;BME280;68071;45.062;7.356;2023-09-19T00:02:46;94931.94;;;12.65;100.00
49999;BME280;68071;45.062;7.356;2023-09-19T00:05:57;94938.31;;;12.82;100.00
49999;BME280;68071;45.062;7.356;2023-09-19T00:09:03;94936.38;;;12.79;100.00
49999;BME280;68071;45.062;7.356;2023-09-19T00:12:07;94931.72;;;13.49;100.00
49999;BME280;68071;45.062;7.356;2023-09-19T00:15:13;94940.94;;;12.89;100.00
49999;BME280;68071;45.062;7.356;2023-09-19T00:18:21;94942.91;;;12.89;100.00
49999;BME280;68071;45.062;7.356;2023-09-19T00:21:25;94938.19;;;12.49;100.00
49999;BME280;68071;45.062;7.356;2023-09-19T00:24:30;94919.91;;;12.51;100.00
49999;BME280;68071;45.062;7.356;2023-09-19T00:27:37;94914.38;;;12.71;100.00
49999;BME280;68071;45.062;7.356;2023-09-19T00:30:47;94924.38;;;12.85;100.00
49999;BME280;68071;45.062;7.356;2023-09-19T00:33:53;94923.59;;;13.22;100.00
49999;BME280;68071;45.062;7.356;2023-09-19T00:36:58;94929.47;;;13.44;100.00
49999;BME280;68071;45.062;7.356;2023-09-19T00:40:03;94927.63;;;14.03;100.00
49999;BME280;68071;45.062;7.356;2023-09-19T00:43:09;94919.72;;;14.02;100.00
49999;BME280;68071;45.062;7.356;2023-09-19T00:46:17;94917.25;;;13.41;100.00
49999;BME280;68071;45.062;7.356;2023-09-19T00:49:20;94923.53;;;13.05;100.00
49999;BME280;68071;45.062;7.356;2023-09-19T00:52:26;94918.31;;;13.27;100.00
49999;BME280;68071;45.062;7.356;2023-09-19T00:55:31;94916.50;;;12.64;100.00
49999;BME280;68071;45.062;7.356;2023-09-19T00:58:36;94923.97;;;12.67;100.00
49999;BME280;68071;45.062;7.356;2023-09-19T01:01:40;94926.31;;;12.68;100.00
49999;BME280;68071;45.062;7.356;2023-09-19T01:04:44;94916.97;;;12.79;100.00
49999;BME280;68071;45.062;7.356;2023-09-19T01:07:49;94919.84;;;12.55;100.00
49999;BME280;68071;45.062;7.356;2023-09-19T01:10:58;94929.38;;;12.54;100.00
49999;BME280;68071;45.062;7.356;2023-09-19T01:14:42;94928.78;;;12.43;100.00
49999;BME280;68071;45.062;7.356;2023-09-19T01:18:08;94920.97;;;12.37;100.00
49999;BME280;68071;45.062;7.356;2023-09-19T01:21:43;94909.75;;;12.24;100.00
49999;BME280;68071;45.062;7.356;2023-09-19T01:24:55;94918.63;;;12.36;100.00
49999;BME280;68071;45.062;7.356;2023-09-19T01:31:23;94915.75;;;13.00;100.00
49999;BME280;68071;45.062;7.356;2023-09-19T01:37:53;94918.19;;;13.84;100.00
49999;BME280;68071;45.062;7.356;2023-09-19T01:41:06;94917.00;;;13.15;100.00
49999;BME280;68071;45.062;7.356;2023-09-19T01:44:24;94917.91;;;12.92;100.00
49999;BME280;68071;45.062;7.356;2023-09-19T01:47:48;94920.91;;;12.61;100.00
49999;BME280;68071;45.062;7.356;2023-09-19T01:51:06;94923.47;;;12.52;100.00
49999;BME280;68071;45.062;7.356;2023-09-19T01:54:12;94916.50;;;12.44;100.00
49999;BME280;68071;45.062;7.356;2023-09-19T01:57:34;94924.94;;;12.56;100.00
49999;BME280;68071;45.062;7.356;2023-09-19T02:00:41;94929.28;;;12.58;100.00
49999;BME280;68071;45.062;7.356;2023-09-19T02:03:48;94923.59;;;12.24;100.00
49999;BME280;68071;45.062;7.356;2023-09-19T02:06:52;94921.22;;;12.23;100.00
49999;BME280;68071;45.062;7.356;2023-09-19T02:09:59;94911.50;;;12.35;100.00
49999;BME280;68071;45.062;7.356;2023-09-19T02:13:09;94913.94;;;12.33;100.00
49999;BME280;68071;45.062;7.356;2023-09-19T02:16:16;94925.78;;;13.30;100.00
49999;BME280;68071;45.062;7.356;2023-09-19T02:19:20;94922.06;;;13.00;100.00
49999;BME280;68071;45.062;7.356;2023-09-19T02:22:24;94925.81;;;12.74;100.00
49999;BME280;68071;45.062;7.356;2023-09-19T02:25:29;94917.50;;;12.33;100.00
49999;BME280;68071;45.062;7.356;2023-09-19T02:28:52;94914.44;;;12.48;100.00
49999;BME280;68071;45.062;7.356;2023-09-19T02:31:56;94916.56;;;13.34;100.00
49999;BME280;68071;45.062;7.356;2023-09-19T02:35:00;94916.09;;;13.02;100.00
49999;BME280;68071;45.062;7.356;2023-09-19T02:38:06;94914.53;;;13.87;100.00
49999;BME280;68071;45.062;7.356;2023-09-19T02:41:15;94905.19;;;13.11;100.00
49999;BME280;68071;45.062;7.356;2023-09-19T02:44:19;94911.09;;;13.50;100.00
49999;BME280;68071;45.062;7.356;2023-09-19T02:47:23;94906.25;;;12.61;100.00
49999;BME280;68071;45.062;7.356;2023-09-19T02:50:27;94907.38;;;13.37;100.00
49999;BME280;68071;45.062;7.356;2023-09-19T02:53:31;94903.91;;;12.59;100.00
49999;BME280;68071;45.062;7.356;2023-09-19T02:56:36;94902.78;;;12.56;100.00
49999;BME280;68071;45.062;7.356;2023-09-19T02:59:41;94905.03;;;12.41;100.00
49999;BME280;68071;45.062;7.356;2023-09-19T03:02:50;94909.59;;;12.32;100.00
49999;BME280;68071;45.062;7.356;2023-09-19T03:05:54;94895.59;;;12.19;100.00
49999;BME280;68071;45.062;7.356;2023-09-19T03:08:59;94892.59;;;12.30;100.00
49999;BME280;68071;45.062;7.356;2023-09-19T03:12:04;94895.53;;;12.22;100.00
49999;BME280;68071;45.062;7.356;2023-09-19T03:15:11;94894.72;;;12.22;100.00
49999;BME280;68071;45.062;7.356;2023-09-19T03:18:15;94894.84;;;12.38;100.00
49999;BME280;68071;45.062;7.356;2023-09-19T03:21:20;94893.59;;;12.19;100.00
49999;BME280;68071;45.062;7.356;2023-09-19T03:24:25;94884.31;;;12.86;100.00
49999;BME280;68071;45.062;7.356;2023-09-19T03:27:30;94886.00;;;12.44;100.00
49999;BME280;68071;45.062;7.356;2023-09-19T03:30:34;94887.22;;;12.43;100.00
49999;BME280;68071;45.062;7.356;2023-09-19T03:33:40;94885.13;;;12.87;100.00
49999;BME280;68071;45.062;7.356;2023-09-19T03:36:45;94888.03;;;12.80;100.00
49999;BME280;68071;45.062;7.356;2023-09-19T03:39:48;94895.94;;;12.61;100.00
49999;BME280;68071;45.062;7.356;2023-09-19T03:42:52;94897.06;;;12.03;100.00
49999;BME280;68071;45.062;7.356;2023-09-19T03:45:56;94891.75;;;11.89;100.00
49999;BME280;68071;45.062;7.356;2023-09-19T03:49:01;94884.53;;;11.95;100.00
49999;BME280;68071;45.062;7.356;2023-09-19T03:52:06;94887.69;;;11.73;100.00
49999;BME280;68071;45.062;7.356;2023-09-19T03:55:10;94882.25;;;11.90;100.00
49999;BME280;68071;45.062;7.356;2023-09-19T03:58:15;94888.63;;;11.87;100.00
49999;BME280;68071;45.062;7.356;2023-09-19T04:01:19;94877.13;;;11.88;100.00
49999;BME280;68071;45.062;7.356;2023-09-19T04:04:25;94885.63;;;11.77;100.00
49999;BME280;68071;45.062;7.356;2023-09-19T04:07:29;94883.97;;;11.60;100.00
49999;BME280;68071;45.062;7.356;2023-09-19T04:10:34;94886.56;;;11.91;100.00
49999;BME280;68071;45.062;7.356;2023-09-19T04:13:38;94876.34;;;11.88;100.00
49999;BME280;68071;45.062;7.356;2023-09-19T04:16:42;94879.69;;;12.23;100.00
49999;BME280;68071;45.062;7.356;2023-09-19T04:19:46;94876.22;;;12.19;100.00
49999;BME280;68071;45.062;7.356;2023-09-19T04:22:51;94877.19;;;12.08;100.00
49999;BME280;68071;45.062;7.356;2023-09-19T04:25:55;94873.00;;;12.20;100.00
49999;BME280;68071;45.062;7.356;2023-09-19T04:28:59;94871.16;;;11.90;100.00
49999;BME280;68071;45.062;7.356;2023-09-19T04:32:04;94878.16;;;11.98;100.00
49999;BME280;68071;45.062;7.356;2023-09-19T04:35:10;94879.94;;;11.85;100.00
49999;BME280;68071;45.062;7.356;2023-09-19T04:38:14;94878.63;;;12.37;100.00
49999;BME280;68071;45.062;7.356;2023-09-19T04:41:19;94875.97;;;12.09;100.00
49999;BME280;68071;45.062;7.356;2023-09-19T04:44:22;94882.25;;;11.90;100.00
49999;BME280;68071;45.062;7.356;2023-09-19T04:47:26;94885.44;;;11.88;100.00
49999;BME280;68071;45.062;7.356;2023-09-19T04:50:30;94885.00;;;12.14;100.00
49999;BME280;68071;45.062;7.356;2023-09-19T04:53:34;94897.44;;;12.46;100.00
49999;BME280;68071;45.062;7.356;2023-09-19T04:56:38;94905.44;;;12.20;100.00
49999;BME280;68071;45.062;7.356;2023-09-19T04:59:43;94900.06;;;12.33;100.00
49999;BME280;68071;45.062;7.356;2023-09-19T05:02:52;94899.91;;;12.20;100.00
49999;BME280;68071;45.062;7.356;2023-09-19T05:05:56;94912.34;;;12.12;100.00
49999;BME280;68071;45.062;7.356;2023-09-19T05:09:00;94902.28;;;12.21;100.00
49999;BME280;68071;45.062;7.356;2023-09-19T05:12:04;94916.69;;;11.89;100.00
49999;BME280;68071;45.062;7.356;2023-09-19T05:15:08;94922.28;;;11.85;100.00
49999;BME280;68071;45.062;7.356;2023-09-19T05:18:12;94926.47;;;11.93;100.00
49999;BME280;68071;45.062;7.356;2023-09-19T05:21:16;94922.63;;;12.11;100.00
49999;BME280;68071;45.062;7.356;2023-09-19T05:24:21;94937.22;;;12.15;100.00
49999;BME280;68071;45.062;7.356;2023-09-19T05:27:27;94938.72;;;11.72;100.00
49999;BME280;68071;45.062;7.356;2023-09-19T05:30:31;94935.13;;;11.99;100.00
49999;BME280;68071;45.062;7.356;2023-09-19T05:33:35;94951.50;;;12.14;100.00
49999;BME280;68071;45.062;7.356;2023-09-19T05:36:39;94957.63;;;12.25;100.00
49999;BME280;68071;45.062;7.356;2023-09-19T05:39:43;94952.34;;;12.10;100.00
49999;BME280;68071;45.062;7.356;2023-09-19T05:42:47;94951.75;;;12.43;100.00
49999;BME280;68071;45.062;7.356;2023-09-19T05:45:51;94939.09;;;12.82;100.00
49999;BME280;68071;45.062;7.356;2023-09-19T05:48:56;94947.69;;;12.68;100.00
49999;BME280;68071;45.062;7.356;2023-09-19T05:52:02;94956.91;;;13.01;100.00
49999;BME280;68071;45.062;7.356;2023-09-19T05:55:07;94958.59;;;13.15;100.00
49999;BME280;68071;45.062;7.356;2023-09-19T05:58:11;94964.84;;;13.03;100.00
49999;BME280;68071;45.062;7.356;2023-09-19T06:01:18;94963.22;;;13.22;100.00
49999;BME280;68071;45.062;7.356;2023-09-19T06:04:22;94975.53;;;13.41;100.00
49999;BME280;68071;45.062;7.356;2023-09-19T06:07:26;94964.84;;;13.56;100.00
49999;BME280;68071;45.062;7.356;2023-09-19T06:10:39;94972.66;;;13.45;100.00
49999;BME280;68071;45.062;7.356;2023-09-19T06:13:43;94972.66;;;13.45;100.00
49999;BME280;68071;45.062;7.356;2023-09-19T06:16:50;94969.66;;;13.56;100.00
49999;BME280;68071;45.062;7.356;2023-09-19T06:19:55;94981.47;;;13.76;100.00
49999;BME280;68071;45.062;7.356;2023-09-19T06:23:00;94978.50;;;14.00;100.00
49999;BME280;68071;45.062;7.356;2023-09-19T06:26:05;94993.78;;;14.25;100.00
49999;BME280;68071;45.062;7.356;2023-09-19T06:29:10;95002.09;;;14.42;100.00
49999;BME280;68071;45.062;7.356;2023-09-19T06:32:14;94996.25;;;14.52;100.00
49999;BME280;68071;45.062;7.356;2023-09-19T06:35:18;94998.50;;;14.58;100.00
49999;BME280;68071;45.062;7.356;2023-09-19T06:38:22;94993.78;;;14.71;100.00
49999;BME280;68071;45.062;7.356;2023-09-19T06:41:27;94993.72;;;14.88;100.00
49999;BME280;68071;45.062;7.356;2023-09-19T06:44:30;94998.19;;;15.27;100.00
49999;BME280;68071;45.062;7.356;2023-09-19T06:47:35;95001.13;;;15.63;100.00
49999;BME280;68071;45.062;7.356;2023-09-19T06:50:39;94990.63;;;15.80;100.00
49999;BME280;68071;45.062;7.356;2023-09-19T06:53:44;94995.88;;;15.78;100.00
49999;BME280;68071;45.062;7.356;2023-09-19T06:56:48;94992.22;;;16.07;100.00
49999;BME280;68071;45.062;7.356;2023-09-19T06:59:52;94995.22;;;15.73;100.00
49999;BME280;68071;45.062;7.356;2023-09-19T07:03:05;94988.84;;;16.12;100.00
49999;BME280;68071;45.062;7.356;2023-09-19T07:06:15;94986.63;;;16.20;100.00
49999;BME280;68071;45.062;7.356;2023-09-19T07:09:19;94998.16;;;16.44;100.00
49999;BME280;68071;45.062;7.356;2023-09-19T07:12:23;94987.47;;;16.64;100.00
49999;BME280;68071;45.062;7.356;2023-09-19T07:15:28;94992.66;;;16.53;100.00
49999;BME280;68071;45.062;7.356;2023-09-19T07:18:33;94995.66;;;16.59;100.00
49999;BME280;68071;45.062;7.356;2023-09-19T07:21:37;94999.31;;;16.69;100.00
49999;BME280;68071;45.062;7.356;2023-09-19T07:24:42;95001.81;;;16.76;100.00
49999;BME280;68071;45.062;7.356;2023-09-19T07:27:46;95004.75;;;16.72;100.00
49999;BME280;68071;45.062;7.356;2023-09-19T07:30:50;95012.13;;;16.66;100.00
49999;BME280;68071;45.062;7.356;2023-09-19T07:33:54;95012.56;;;16.77;100.00
49999;BME280;68071;45.062;7.356;2023-09-19T07:36:58;95012.84;;;16.92;100.00
49999;BME280;68071;45.062;7.356;2023-09-19T07:40:03;95023.75;;;17.00;100.00
49999;BME280;68071;45.062;7.356;2023-09-19T07:43:25;95024.44;;;16.91;100.00
49999;BME280;68071;45.062;7.356;2023-09-19T07:46:29;95024.66;;;16.97;100.00
49999;BME280;68071;45.062;7.356;2023-09-19T07:49:34;95026.81;;;17.15;100.00
49999;BME280;68071;45.062;7.356;2023-09-19T07:52:38;95034.16;;;17.21;100.00
49999;BME280;68071;45.062;7.356;2023-09-19T07:55:46;95033.41;;;17.21;100.00
49999;BME280;68071;45.062;7.356;2023-09-19T07:58:52;95037.00;;;17.31;100.00
49999;BME280;68071;45.062;7.356;2023-09-19T08:01:56;95035.50;;;17.39;100.00
49999;BME280;68071;45.062;7.356;2023-09-19T08:05:00;95043.25;;;17.35;100.00
49999;BME280;68071;45.062;7.356;2023-09-19T08:08:05;95050.78;;;17.47;100.00
49999;BME280;68071;45.062;7.356;2023-09-19T08:11:11;95061.78;;;17.73;100.00
49999;BME280;68071;45.062;7.356;2023-09-19T08:14:16;95061.03;;;17.50;100.00
49999;BME280;68071;45.062;7.356;2023-09-19T08:17:20;95053.38;;;17.42;100.00
49999;BME280;68071;45.062;7.356;2023-09-19T08:20:26;95057.66;;;17.56;100.00
49999;BME280;68071;45.062;7.356;2023-09-19T08:23:30;95072.34;;;17.47;100.00
49999;BME280;68071;45.062;7.356;2023-09-19T08:26:36;95070.00;;;17.67;100.00
49999;BME280;68071;45.062;7.356;2023-09-19T08:29:41;95068.28;;;18.33;100.00
49999;BME280;68071;45.062;7.356;2023-09-19T08:32:46;95072.97;;;18.36;100.00
49999;BME280;68071;45.062;7.356;2023-09-19T08:35:51;95071.19;;;18.20;100.00
49999;BME280;68071;45.062;7.356;2023-09-19T08:38:55;95075.78;;;18.45;100.00
49999;BME280;68071;45.062;7.356;2023-09-19T08:42:00;95073.03;;;18.73;100.00
49999;BME280;68071;45.062;7.356;2023-09-19T08:45:05;95088.28;;;18.72;100.00
49999;BME280;68071;45.062;7.356;2023-09-19T08:51:26;95083.22;;;18.99;100.00
49999;BME280;68071;45.062;7.356;2023-09-19T08:54:35;95089.84;;;18.83;97.35
49999;BME280;68071;45.062;7.356;2023-09-19T08:57:43;95081.66;;;19.16;96.48
49999;BME280;68071;45.062;7.356;2023-09-19T09:00:52;95082.44;;;19.26;100.00
49999;BME280;68071;45.062;7.356;2023-09-19T09:03:57;95089.09;;;19.57;99.03
49999;BME280;68071;45.062;7.356;2023-09-19T09:07:02;95091.78;;;19.51;94.91
49999;BME280;68071;45.062;7.356;2023-09-19T09:10:07;95086.53;;;19.87;91.91
49999;BME280;68071;45.062;7.356;2023-09-19T09:13:12;95081.63;;;19.63;90.98
49999;BME280;68071;45.062;7.356;2023-09-19T09:16:17;95080.53;;;19.70;99.61
49999;BME280;68071;45.062;7.356;2023-09-19T09:19:22;95085.53;;;19.56;100.00
49999;BME280;68071;45.062;7.356;2023-09-19T09:22:28;95082.06;;;19.89;100.00
49999;BME280;68071;45.062;7.356;2023-09-19T09:25:52;95081.03;;;20.20;100.00
49999;BME280;68071;45.062;7.356;2023-09-19T09:28:59;95077.59;;;20.50;95.75
49999;BME280;68071;45.062;7.356;2023-09-19T09:32:25;95086.09;;;19.98;100.00
49999;BME280;68071;45.062;7.356;2023-09-19T09:35:29;95088.00;;;20.25;100.00
49999;BME280;68071;45.062;7.356;2023-09-19T09:38:45;95083.84;;;20.54;91.11
49999;BME280;68071;45.062;7.356;2023-09-19T09:41:50;95087.41;;;20.54;88.88
49999;BME280;68071;45.062;7.356;2023-09-19T09:45:27;95082.47;;;20.06;89.20
49999;BME280;68071;45.062;7.356;2023-09-19T09:48:37;95082.66;;;19.84;81.38
49999;BME280;68071;45.062;7.356;2023-09-19T09:55:02;95084.06;;;20.65;84.79
49999;BME280;68071;45.062;7.356;2023-09-19T09:58:17;95078.66;;;21.10;82.06
49999;BME280;68071;45.062;7.356;2023-09-19T10:01:22;95082.91;;;21.06;80.22
49999;BME280;68071;45.062;7.356;2023-09-19T10:04:30;95081.09;;;21.18;73.52
49999;BME280;68071;45.062;7.356;2023-09-19T10:07:40;95079.78;;;20.89;79.99
49999;BME280;68071;45.062;7.356;2023-09-19T10:10:49;95080.88;;;21.06;84.06
49999;BME280;68071;45.062;7.356;2023-09-19T10:14:07;95069.00;;;20.53;80.46
49999;BME280;68071;45.062;7.356;2023-09-19T10:17:13;95075.41;;;20.88;73.56
49999;BME280;68071;45.062;7.356;2023-09-19T10:20:24;95070.22;;;21.10;78.41
49999;BME280;68071;45.062;7.356;2023-09-19T10:23:47;95071.66;;;21.06;83.80
49999;BME280;68071;45.062;7.356;2023-09-19T10:26:51;95065.59;;;21.07;89.99
49999;BME280;68071;45.062;7.356;2023-09-19T10:29:58;95072.38;;;21.15;87.27
49999;BME280;68071;45.062;7.356;2023-09-19T10:33:04;95062.72;;;21.46;82.46
49999;BME280;68071;45.062;7.356;2023-09-19T10:36:12;95067.28;;;21.44;81.31
49999;BME280;68071;45.062;7.356;2023-09-19T10:39:16;95077.72;;;21.68;73.17
49999;BME280;68071;45.062;7.356;2023-09-19T10:42:25;95065.69;;;21.67;73.51
49999;BME280;68071;45.062;7.356;2023-09-19T10:45:34;95065.28;;;22.04;63.31
49999;BME280;68071;45.062;7.356;2023-09-19T10:48:39;95069.50;;;21.40;69.28
49999;BME280;68071;45.062;7.356;2023-09-19T10:51:43;95070.25;;;22.10;73.74
49999;BME280;68071;45.062;7.356;2023-09-19T10:54:53;95063.34;;;21.96;84.87
49999;BME280;68071;45.062;7.356;2023-09-19T10:58:01;95050.22;;;21.48;79.12
49999;BME280;68071;45.062;7.356;2023-09-19T11:01:13;95053.38;;;21.95;81.87
49999;BME280;68071;45.062;7.356;2023-09-19T11:04:28;95063.53;;;22.22;79.63
49999;BME280;68071;45.062;7.356;2023-09-19T11:08:03;95062.38;;;21.99;77.41
49999;BME280;68071;45.062;7.356;2023-09-19T11:14:44;95048.31;;;22.14;73.90
49999;BME280;68071;45.062;7.356;2023-09-19T11:17:48;95051.03;;;22.08;77.15
49999;BME280;68071;45.062;7.356;2023-09-19T11:24:35;95047.47;;;21.78;68.99
49999;BME280;68071;45.062;7.356;2023-09-19T11:31:44;95050.97;;;22.38;69.49
49999;BME280;68071;45.062;7.356;2023-09-19T11:34:49;95044.22;;;22.65;73.21
49999;BME280;68071;45.062;7.356;2023-09-19T11:47:34;95049.78;;;22.60;64.85
49999;BME280;68071;45.062;7.356;2023-09-19T11:50:39;95042.47;;;22.68;65.06
49999;BME280;68071;45.062;7.356;2023-09-19T11:53:51;95038.56;;;22.65;64.48
49999;BME280;68071;45.062;7.356;2023-09-19T11:56:55;95034.13;;;22.59;67.95
49999;BME280;68071;45.062;7.356;2023-09-19T11:59:59;95039.91;;;22.70;58.35
49999;BME280;68071;45.062;7.356;2023-09-19T12:03:08;95037.47;;;22.78;53.27
49999;BME280;68071;45.062;7.356;2023-09-19T12:06:14;95034.94;;;23.21;53.36
49999;BME280;68071;45.062;7.356;2023-09-19T12:09:19;95030.09;;;23.48;52.26
49999;BME280;68071;45.062;7.356;2023-09-19T12:12:25;95031.66;;;23.49;56.80
49999;BME280;68071;45.062;7.356;2023-09-19T12:15:34;95029.63;;;23.08;63.76
49999;BME280;68071;45.062;7.356;2023-09-19T12:18:43;95017.38;;;23.32;61.66
49999;BME280;68071;45.062;7.356;2023-09-19T12:21:55;95014.88;;;23.19;72.38
49999;BME280;68071;45.062;7.356;2023-09-19T12:25:06;95011.34;;;23.45;74.35
49999;BME280;68071;45.062;7.356;2023-09-19T12:28:11;95016.56;;;22.85;74.55
49999;BME280;68071;45.062;7.356;2023-09-19T12:31:15;95013.78;;;22.90;76.19
49999;BME280;68071;45.062;7.356;2023-09-19T12:34:27;95000.63;;;22.81;83.44
49999;BME280;68071;45.062;7.356;2023-09-19T12:37:31;95002.53;;;22.90;85.11
49999;BME280;68071;45.062;7.356;2023-09-19T12:40:38;95005.00;;;23.50;76.85
49999;BME280;68071;45.062;7.356;2023-09-19T12:43:46;95011.31;;;23.19;80.63
49999;BME280;68071;45.062;7.356;2023-09-19T12:46:50;95004.16;;;23.44;83.08
49999;BME280;68071;45.062;7.356;2023-09-19T12:53:25;95007.06;;;23.08;83.13
49999;BME280;68071;45.062;7.356;2023-09-19T12:56:40;95000.72;;;23.61;78.17
49999;BME280;68071;45.062;7.356;2023-09-19T12:59:54;94995.91;;;23.67;73.85
49999;BME280;68071;45.062;7.356;2023-09-19T13:06:35;94995.78;;;23.29;82.60
49999;BME280;68071;45.062;7.356;2023-09-19T13:10:02;95002.97;;;23.83;74.85
49999;BME280;68071;45.062;7.356;2023-09-19T13:13:23;94998.69;;;23.93;71.55
49999;BME280;68071;45.062;7.356;2023-09-19T13:16:32;94994.66;;;24.00;72.35
49999;BME280;68071;45.062;7.356;2023-09-19T13:19:46;94986.00;;;24.09;70.83
49999;BME280;68071;45.062;7.356;2023-09-19T13:22:56;94989.72;;;24.27;69.44
49999;BME280;68071;45.062;7.356;2023-09-19T13:26:14;94993.16;;;24.42;69.62
49999;BME280;68071;45.062;7.356;2023-09-19T13:29:18;94986.03;;;24.15;71.31
49999;BME280;68071;45.062;7.356;2023-09-19T13:32:22;94993.38;;;24.39;69.21
49999;BME280;68071;45.062;7.356;2023-09-19T13:35:26;94991.22;;;24.22;76.34
49999;BME280;68071;45.062;7.356;2023-09-19T13:38:30;94990.19;;;24.63;68.04
49999;BME280;68071;45.062;7.356;2023-09-19T13:41:35;94987.19;;;24.35;72.75
49999;BME280;68071;45.062;7.356;2023-09-19T13:44:40;94986.78;;;24.53;67.00
49999;BME280;68071;45.062;7.356;2023-09-19T13:47:44;94984.81;;;24.27;69.43
49999;BME280;68071;45.062;7.356;2023-09-19T13:50:49;94987.56;;;24.10;69.52
49999;BME280;68071;45.062;7.356;2023-09-19T13:53:53;94990.09;;;24.52;64.58
49999;BME280;68071;45.062;7.356;2023-09-19T13:56:57;94987.25;;;24.46;67.34
49999;BME280;68071;45.062;7.356;2023-09-19T14:00:01;94987.41;;;24.31;68.00
49999;BME280;68071;45.062;7.356;2023-09-19T14:03:16;94987.06;;;24.55;66.96
49999;BME280;68071;45.062;7.356;2023-09-19T14:06:20;94986.16;;;24.81;69.41
49999;BME280;68071;45.062;7.356;2023-09-19T14:09:24;94996.84;;;24.60;65.90
49999;BME280;68071;45.062;7.356;2023-09-19T14:12:28;94991.44;;;24.62;66.02
49999;BME280;68071;45.062;7.356;2023-09-19T14:15:37;94999.69;;;24.66;64.65
49999;BME280;68071;45.062;7.356;2023-09-19T14:18:42;94992.13;;;24.45;61.78
49999;BME280;68071;45.062;7.356;2023-09-19T14:21:46;94992.13;;;24.45;62.48
49999;BME280;68071;45.062;7.356;2023-09-19T14:24:50;94986.94;;;24.76;64.83
49999;BME280;68071;45.062;7.356;2023-09-19T14:27:55;94987.06;;;24.61;66.63
49999;BME280;68071;45.062;7.356;2023-09-19T14:31:07;94988.53;;;24.45;63.76
49999;BME280;68071;45.062;7.356;2023-09-19T14:34:11;94982.16;;;23.80;69.96
49999;BME280;68071;45.062;7.356;2023-09-19T14:37:15;94977.47;;;23.71;67.73
49999;BME280;68071;45.062;7.356;2023-09-19T14:40:22;94974.25;;;23.52;69.83
49999;BME280;68071;45.062;7.356;2023-09-19T14:43:26;94975.28;;;23.55;67.02
49999;BME280;68071;45.062;7.356;2023-09-19T14:46:32;94984.56;;;24.25;63.97
49999;BME280;68071;45.062;7.356;2023-09-19T14:49:36;94980.41;;;24.58;59.34
49999;BME280;68071;45.062;7.356;2023-09-19T14:52:43;94988.28;;;24.98;57.52
49999;BME280;68071;45.062;7.356;2023-09-19T14:55:47;94987.81;;;25.11;58.31
49999;BME280;68071;45.062;7.356;2023-09-19T14:58:55;94983.50;;;25.32;56.63
49999;BME280;68071;45.062;7.356;2023-09-19T15:01:59;94985.59;;;25.49;57.19
49999;BME280;68071;45.062;7.356;2023-09-19T15:05:04;94988.22;;;25.64;54.88
49999;BME280;68071;45.062;7.356;2023-09-19T15:08:10;94983.59;;;25.78;51.91
49999;BME280;68071;45.062;7.356;2023-09-19T15:11:15;94988.72;;;26.08;52.94
49999;BME280;68071;45.062;7.356;2023-09-19T15:14:22;94983.31;;;25.93;54.08
49999;BME280;68071;45.062;7.356;2023-09-19T15:17:28;94990.00;;;25.73;58.01
49999;BME280;68071;45.062;7.356;2023-09-19T15:20:32;94987.44;;;25.97;55.94
49999;BME280;68071;45.062;7.356;2023-09-19T15:23:36;94995.41;;;26.39;53.04
49999;BME280;68071;45.062;7.356;2023-09-19T15:26:41;94995.91;;;26.43;52.28
49999;BME280;68071;45.062;7.356;2023-09-19T15:29:47;94993.31;;;26.56;52.55
49999;BME280;68071;45.062;7.356;2023-09-19T15:32:51;94999.19;;;26.70;51.68
49999;BME280;68071;45.062;7.356;2023-09-19T15:36:09;94992.78;;;23.33;81.89
49999;BME280;68071;45.062;7.356;2023-09-19T15:39:13;94999.03;;;21.28;100.00
49999;BME280;68071;45.062;7.356;2023-09-19T15:42:18;94990.63;;;20.89;100.00
49999;BME280;68071;45.062;7.356;2023-09-19T15:45:24;94992.78;;;20.70;100.00
49999;BME280;68071;45.062;7.356;2023-09-19T15:48:29;94993.38;;;20.25;100.00
49999;BME280;68071;45.062;7.356;2023-09-19T15:51:34;95002.31;;;19.72;100.00
49999;BME280;68071;45.062;7.356;2023-09-19T15:54:42;94996.47;;;19.51;100.00
49999;BME280;68071;45.062;7.356;2023-09-19T15:57:48;95003.56;;;19.71;100.00
49999;BME280;68071;45.062;7.356;2023-09-19T16:00:52;95001.97;;;19.79;100.00
49999;BME280;68071;45.062;7.356;2023-09-19T16:03:56;95003.09;;;19.72;100.00
49999;BME280;68071;45.062;7.356;2023-09-19T16:07:00;95004.13;;;19.84;100.00
49999;BME280;68071;45.062;7.356;2023-09-19T16:10:06;95002.44;;;20.20;100.00
49999;BME280;68071;45.062;7.356;2023-09-19T16:13:11;95004.25;;;20.33;100.00
49999;BME280;68071;45.062;7.356;2023-09-19T16:16:17;94996.84;;;20.20;100.00
49999;BME280;68071;45.062;7.356;2023-09-19T16:19:24;95000.91;;;19.67;100.00
49999;BME280;68071;45.062;7.356;2023-09-19T16:22:27;95008.03;;;19.25;100.00
49999;BME280;68071;45.062;7.356;2023-09-19T16:25:31;95003.38;;;19.03;100.00
49999;BME280;68071;45.062;7.356;2023-09-19T16:28:36;95008.81;;;18.88;100.00
49999;BME280;68071;45.062;7.356;2023-09-19T16:31:41;95004.63;;;19.02;100.00
49999;BME280;68071;45.062;7.356;2023-09-19T16:34:45;95002.75;;;18.90;100.00
49999;BME280;68071;45.062;7.356;2023-09-19T16:37:49;95007.06;;;18.54;100.00
49999;BME280;68071;45.062;7.356;2023-09-19T16:40:56;94999.75;;;18.38;100.00
49999;BME280;68071;45.062;7.356;2023-09-19T16:44:03;95004.13;;;18.48;100.00
49999;BME280;68071;45.062;7.356;2023-09-19T16:47:11;95008.28;;;18.34;100.00
49999;BME280;68071;45.062;7.356;2023-09-19T16:50:15;95005.97;;;17.92;100.00
49999;BME280;68071;45.062;7.356;2023-09-19T16:53:19;95007.41;;;17.65;100.00
49999;BME280;68071;45.062;7.356;2023-09-19T16:56:24;95017.13;;;17.92;100.00
49999;BME280;68071;45.062;7.356;2023-09-19T16:59:28;95012.88;;;18.00;100.00
49999;BME280;68071;45.062;7.356;2023-09-19T17:02:32;95012.06;;;17.99;100.00